createdAt,value
2019-05-21T00:01:03.902Z,26.13
2019-05-21T00:03:29.010Z,26.10
2019-05-21T00:05:54.246Z,29.57
2019-05-21T00:08:19.370Z,25.57
2019-05-21T00:10:44.516Z,23.33
2019-05-21T00:13:09.651Z,20.60
2019-05-21T00:15:34.775Z,24.23
2019-05-21T00:17:59.931Z,34.17
2019-05-21T00:20:25.085Z,23.13
2019-05-21T00:22:50.232Z,28.37
2019-05-21T00:25:17.362Z,47.83
2019-05-21T00:27:42.831Z,38.50
2019-05-21T00:30:43.522Z,39.43
2019-05-21T00:33:44.063Z,31.30
2019-05-21T00:36:45.416Z,39.63
2019-05-21T00:39:46.272Z,28.90
2019-05-21T00:42:10.050Z,30.27
2019-05-21T00:44:38.601Z,34.80
2019-05-21T00:47:05.739Z,37.30
2019-05-21T00:49:32.143Z,25.43
2019-05-21T00:52:07.117Z,31.77
2019-05-21T00:54:24.302Z,32.20
2019-05-21T00:56:49.494Z,27.40
2019-05-21T00:59:14.628Z,46.80
2019-05-21T01:01:40.073Z,34.70
2019-05-21T01:04:06.208Z,36.53
2019-05-21T01:06:31.560Z,31.23
2019-05-21T01:08:57.389Z,36.53
2019-05-21T01:11:23.474Z,32.20
2019-05-21T01:13:48.694Z,43.30
2019-05-21T01:16:13.830Z,40.93
2019-05-21T01:18:39.258Z,31.53
2019-05-21T01:21:05.259Z,41.07
2019-05-21T01:23:30.402Z,37.70
2019-05-21T01:25:55.531Z,61.90
2019-05-21T01:28:20.676Z,41.53
2019-05-21T01:30:45.812Z,39.67
2019-05-21T01:33:10.914Z,54.60
2019-05-21T01:35:36.018Z,57.40
2019-05-21T01:38:01.412Z,53.47
2019-05-21T01:40:26.563Z,85.73
2019-05-21T01:42:51.985Z,55.50
2019-05-21T01:45:17.132Z,69.47
2019-05-21T01:47:42.243Z,50.23
2019-05-21T01:50:07.435Z,49.97
2019-05-21T01:52:32.562Z,47.07
2019-05-21T01:54:59.200Z,44.77
2019-05-21T01:57:24.631Z,55.33
2019-05-21T01:59:49.759Z,42.03
2019-05-21T02:02:14.894Z,35.67
2019-05-21T02:04:40.026Z,48.83
2019-05-21T02:07:05.169Z,46.00
2019-05-21T02:09:32.137Z,55.07
2019-05-21T02:11:57.270Z,40.37
2019-05-21T02:14:22.899Z,47.80
2019-05-21T02:16:48.033Z,40.20
2019-05-21T02:19:13.141Z,52.20
2019-05-21T02:21:38.280Z,48.00
2019-05-21T02:24:04.299Z,40.33
2019-05-21T02:26:29.422Z,47.43
2019-05-21T02:28:54.570Z,52.20
2019-05-21T02:31:19.692Z,58.93
2019-05-21T02:33:44.831Z,60.60
2019-05-21T02:36:10.039Z,47.67
2019-05-21T02:38:35.175Z,52.60
2019-05-21T02:41:00.303Z,55.83
2019-05-21T02:43:25.733Z,58.97
2019-05-21T02:45:50.853Z,69.67
2019-05-21T02:48:15.966Z,48.33
2019-05-21T02:50:41.312Z,57.53
2019-05-21T02:53:06.442Z,63.57
2019-05-21T02:55:31.583Z,54.63
2019-05-21T02:57:56.707Z,118.23
2019-05-21T03:00:49.834Z,147.77
2019-05-21T03:03:16.256Z,150.77
2019-05-21T03:05:41.416Z,192.63
2019-05-21T03:08:06.533Z,220.27
2019-05-21T03:10:33.307Z,240.70
2019-05-21T03:12:58.691Z,186.37
2019-05-21T03:15:23.852Z,181.90
2019-05-21T03:17:48.966Z,121.77
2019-05-21T03:20:14.398Z,205.17
2019-05-21T03:22:39.548Z,210.67
2019-05-21T03:25:04.994Z,174.03
2019-05-21T03:27:30.146Z,263.80
2019-05-21T03:29:56.007Z,233.07
2019-05-21T03:32:21.163Z,222.23
2019-05-21T03:34:46.654Z,232.73
2019-05-21T03:37:11.883Z,257.73
2019-05-21T03:39:37.003Z,174.97
2019-05-21T03:42:02.235Z,107.47
2019-05-21T03:44:27.403Z,142.70
2019-05-21T03:46:53.285Z,139.63
2019-05-21T03:49:20.059Z,143.33
2019-05-21T03:51:45.211Z,146.03
2019-05-21T03:54:10.355Z,141.40
2019-05-21T03:56:35.478Z,106.60
2019-05-21T03:59:00.632Z,95.77
2019-05-21T04:01:25.743Z,82.67
2019-05-21T04:03:50.883Z,84.60
2019-05-21T04:06:16.022Z,72.27
2019-05-21T04:08:41.166Z,58.70
2019-05-21T04:11:06.312Z,53.30
2019-05-21T04:13:31.406Z,50.10
2019-05-21T04:16:02.791Z,53.90
2019-05-21T04:18:41.657Z,53.60
2019-05-21T04:21:07.563Z,58.83
2019-05-21T04:23:32.673Z,60.77
2019-05-21T04:25:57.859Z,48.00
2019-05-21T04:28:22.990Z,51.87
2019-05-21T04:30:48.565Z,50.27
2019-05-21T04:33:13.963Z,46.87
2019-05-21T04:35:39.088Z,41.60
2019-05-21T04:38:04.270Z,46.80
2019-05-21T04:40:29.677Z,54.80
2019-05-21T04:42:54.823Z,37.77
2019-05-21T04:45:19.931Z,45.50
2019-05-21T04:47:45.085Z,37.80
2019-05-21T04:50:10.354Z,36.40
2019-05-21T04:52:35.497Z,40.17
2019-05-21T04:55:00.639Z,38.73
2019-05-21T04:57:25.766Z,37.43
2019-05-21T04:59:50.892Z,37.30
2019-05-21T05:02:15.986Z,34.57
2019-05-21T05:04:41.153Z,33.17
2019-05-21T05:07:06.276Z,32.73
2019-05-21T05:09:31.668Z,34.57
2019-05-21T05:11:56.845Z,35.80
2019-05-21T05:14:22.059Z,36.67
2019-05-21T05:16:47.179Z,36.47
2019-05-21T05:19:12.806Z,39.30
2019-05-21T05:21:37.943Z,36.63
2019-05-21T05:24:03.086Z,35.93
2019-05-21T05:26:28.222Z,35.80
2019-05-21T05:28:53.342Z,30.93
2019-05-21T05:31:18.486Z,28.50
2019-05-21T05:33:43.623Z,31.17
2019-05-21T05:36:08.856Z,32.33
2019-05-21T05:38:34.573Z,30.70
2019-05-21T05:40:59.683Z,31.27
2019-05-21T05:43:24.810Z,31.20
2019-05-21T05:45:51.478Z,33.47
2019-05-21T05:48:17.202Z,27.97
2019-05-21T05:50:44.026Z,24.30
2019-05-21T05:53:10.137Z,21.27
2019-05-21T05:55:35.254Z,21.67
2019-05-21T05:58:00.410Z,23.40
2019-05-21T06:00:25.834Z,24.07
2019-05-21T06:02:51.436Z,22.00
2019-05-21T06:05:17.862Z,22.23
2019-05-21T06:07:42.978Z,20.70
2019-05-21T06:10:08.320Z,22.53
2019-05-21T06:12:33.415Z,23.30
2019-05-21T06:14:58.827Z,21.27
2019-05-21T06:17:23.962Z,20.27
2019-05-21T06:19:49.060Z,19.03
2019-05-21T06:22:14.220Z,18.43
2019-05-21T06:24:39.318Z,18.00
2019-05-21T06:27:04.559Z,18.90
2019-05-21T06:29:29.696Z,16.77
2019-05-21T06:31:54.798Z,16.60
2019-05-21T06:34:19.911Z,18.50
2019-05-21T06:36:45.071Z,16.48
2019-05-21T06:39:10.277Z,14.90
2019-05-21T06:41:36.133Z,15.40
2019-05-21T06:44:02.351Z,15.00
2019-05-21T06:46:27.483Z,16.17
2019-05-21T06:48:52.677Z,14.65
2019-05-21T06:51:17.827Z,14.50
2019-05-21T06:53:42.976Z,15.40
2019-05-21T06:56:08.151Z,13.83
2019-05-21T06:58:33.305Z,12.78
2019-05-21T07:00:58.411Z,12.55
2019-05-21T07:03:23.554Z,13.53
2019-05-21T07:05:58.183Z,12.55
2019-05-21T07:08:15.429Z,12.65
2019-05-21T07:10:40.567Z,13.25
2019-05-21T07:13:05.676Z,12.60
2019-05-21T07:15:30.797Z,11.55
2019-05-21T07:17:55.902Z,13.10
2019-05-21T07:20:21.759Z,11.83
2019-05-21T07:22:46.973Z,10.48
2019-05-21T07:25:12.612Z,12.35
2019-05-21T07:27:37.707Z,10.80
2019-05-21T07:30:02.809Z,11.50
2019-05-21T07:32:28.027Z,9.10
2019-05-21T07:34:53.154Z,10.18
2019-05-21T07:37:19.209Z,10.50
2019-05-21T07:39:44.330Z,10.05
2019-05-21T07:42:09.451Z,11.78
2019-05-21T07:44:34.606Z,10.00
2019-05-21T07:46:59.754Z,8.55
2019-05-21T07:49:24.991Z,10.25
2019-05-21T07:51:50.134Z,11.55
2019-05-21T07:54:15.257Z,8.63
2019-05-21T07:56:40.387Z,9.50
2019-05-21T07:59:05.800Z,11.80
2019-05-21T08:01:31.618Z,8.63
2019-05-21T08:03:56.850Z,9.30
2019-05-21T08:06:22.258Z,8.05
2019-05-21T08:08:47.357Z,8.40
2019-05-21T08:11:12.609Z,9.78
2019-05-21T08:13:37.782Z,7.62
2019-05-21T08:16:02.887Z,9.10
2019-05-21T08:18:28.027Z,9.43
2019-05-21T08:20:53.127Z,8.53
2019-05-21T08:23:18.270Z,7.92
2019-05-21T08:25:43.378Z,7.50
2019-05-21T08:28:08.478Z,7.78
2019-05-21T08:30:33.603Z,6.87
2019-05-21T08:32:58.721Z,7.87
2019-05-21T08:35:23.950Z,7.70
2019-05-21T08:37:49.063Z,6.50
2019-05-21T08:40:14.806Z,7.33
2019-05-21T08:42:39.934Z,6.65
2019-05-21T08:45:06.358Z,6.80
2019-05-21T08:47:31.540Z,7.25
2019-05-21T08:49:56.701Z,7.72
2019-05-21T08:52:21.807Z,10.95
2019-05-21T08:54:56.039Z,8.03
2019-05-21T08:57:19.553Z,8.00
2019-05-21T08:59:44.699Z,8.03
2019-05-21T09:02:09.806Z,7.37
2019-05-21T09:04:45.848Z,6.22
2019-05-21T09:07:01.649Z,6.90
2019-05-21T09:09:27.327Z,6.90
2019-05-21T09:11:52.720Z,7.08
2019-05-21T09:14:18.020Z,7.17
2019-05-21T09:16:43.107Z,8.43
2019-05-21T09:19:08.562Z,6.60
2019-05-21T09:21:33.663Z,10.32
2019-05-21T09:23:59.937Z,7.55
2019-05-21T09:26:26.207Z,6.67
2019-05-21T09:28:51.334Z,8.10
2019-05-21T09:31:16.462Z,8.70
2019-05-21T09:33:41.584Z,6.55
2019-05-21T09:36:06.691Z,9.40
2019-05-21T09:38:31.791Z,7.37
2019-05-21T09:40:57.729Z,5.97
2019-05-21T09:43:22.818Z,5.22
2019-05-21T09:45:47.922Z,7.72
2019-05-21T09:48:13.050Z,6.65
2019-05-21T09:50:38.453Z,7.17
2019-05-21T09:53:03.662Z,5.80
2019-05-21T09:55:28.769Z,6.12
2019-05-21T09:58:00.533Z,6.28
2019-05-21T10:01:01.053Z,5.33
2019-05-21T10:03:28.530Z,6.95
2019-05-21T10:05:53.618Z,4.78
2019-05-21T10:08:18.852Z,6.05
2019-05-21T10:10:44.010Z,4.53
2019-05-21T10:13:09.114Z,5.85
2019-05-21T10:15:34.232Z,7.10
2019-05-21T10:17:59.573Z,6.03
2019-05-21T10:20:24.949Z,5.62
2019-05-21T10:22:50.047Z,4.67
2019-05-21T10:25:16.107Z,7.12
2019-05-21T10:27:41.233Z,7.72
2019-05-21T10:30:07.266Z,4.90
2019-05-21T10:32:32.416Z,5.47
2019-05-21T10:34:58.534Z,5.00
2019-05-21T10:37:23.666Z,5.53
2019-05-21T10:39:48.943Z,10.60
2019-05-21T10:42:14.294Z,3.87
2019-05-21T10:44:39.390Z,8.28
2019-05-21T10:47:05.193Z,4.75
2019-05-21T10:49:30.299Z,5.60
2019-05-21T10:51:58.062Z,4.50
2019-05-21T10:54:23.194Z,6.08
2019-05-21T10:56:48.718Z,3.80
2019-05-21T10:59:14.853Z,5.12
2019-05-21T11:01:58.632Z,4.60
2019-05-21T11:04:37.990Z,6.87
2019-05-21T11:07:03.086Z,3.72
2019-05-21T11:09:36.023Z,6.33
2019-05-21T11:12:00.650Z,4.42
2019-05-21T11:14:29.405Z,4.55
2019-05-21T11:16:54.687Z,4.53
2019-05-21T11:19:19.778Z,6.78
2019-05-21T11:21:44.893Z,6.20
2019-05-21T11:24:10.025Z,3.40
2019-05-21T11:26:35.130Z,7.35
2019-05-21T11:29:00.498Z,7.22
2019-05-21T11:31:25.658Z,3.67
2019-05-21T11:33:50.774Z,4.97
2019-05-21T11:36:15.887Z,5.00
2019-05-21T11:38:41.509Z,4.12
2019-05-21T11:41:06.837Z,4.05
2019-05-21T11:43:33.030Z,4.95
2019-05-21T11:46:02.743Z,4.53
2019-05-21T11:48:25.854Z,4.60
2019-05-21T11:50:50.990Z,3.75
2019-05-21T11:53:17.125Z,4.08
2019-05-21T11:55:42.248Z,4.17
2019-05-21T11:58:07.343Z,5.22
2019-05-21T12:00:34.565Z,3.77
2019-05-21T12:02:59.671Z,3.67
2019-05-21T12:05:25.750Z,4.45
2019-05-21T12:07:50.890Z,4.20
2019-05-21T12:10:16.959Z,4.80
2019-05-21T12:12:42.086Z,4.45
2019-05-21T12:15:07.812Z,3.75
2019-05-21T12:17:32.935Z,3.72
2019-05-21T12:19:58.047Z,4.67
2019-05-21T12:22:23.258Z,4.70
2019-05-21T12:24:48.631Z,3.65
2019-05-21T12:27:13.762Z,3.80
2019-05-21T12:29:38.859Z,3.27
2019-05-21T12:32:04.028Z,5.03
2019-05-21T12:34:29.153Z,5.58
2019-05-21T12:36:54.521Z,3.05
2019-05-21T12:39:19.613Z,3.12
2019-05-21T12:41:44.931Z,3.98
2019-05-21T12:44:12.136Z,7.78
2019-05-21T12:46:37.547Z,3.00
2019-05-21T12:49:02.627Z,3.87
2019-05-21T12:51:27.766Z,4.85
2019-05-21T12:53:53.696Z,3.98
2019-05-21T12:56:19.036Z,3.08
2019-05-21T12:58:44.155Z,5.55
2019-05-21T13:01:09.247Z,3.52
2019-05-21T13:03:34.634Z,3.90
2019-05-21T13:05:59.993Z,5.53
2019-05-21T13:08:25.358Z,5.00
2019-05-21T13:10:51.642Z,5.80
2019-05-21T13:13:16.983Z,3.55
2019-05-21T13:15:42.102Z,4.17
2019-05-21T13:18:07.607Z,8.13
2019-05-21T13:20:32.802Z,3.47
2019-05-21T13:22:57.898Z,6.70
2019-05-21T13:25:23.232Z,5.40
2019-05-21T13:27:48.347Z,6.20
2019-05-21T13:30:13.590Z,3.50
2019-05-21T13:32:38.952Z,5.53
2019-05-21T13:35:05.966Z,5.30
2019-05-21T13:37:31.601Z,6.08
2019-05-21T13:39:57.014Z,3.65
2019-05-21T13:42:23.246Z,5.50
2019-05-21T13:44:48.330Z,4.37
2019-05-21T13:47:13.789Z,5.55
2019-05-21T13:49:38.898Z,5.15
2019-05-21T13:52:03.994Z,4.55
2019-05-21T13:54:29.551Z,4.53
2019-05-21T13:56:54.938Z,5.08
2019-05-21T13:59:20.489Z,4.30
2019-05-21T14:01:45.651Z,3.52
2019-05-21T14:04:10.885Z,3.80
2019-05-21T14:06:36.926Z,7.72
2019-05-21T14:09:02.010Z,4.47
2019-05-21T14:11:28.237Z,5.10
2019-05-21T14:13:54.433Z,3.62
2019-05-21T14:16:19.523Z,2.98
2019-05-21T14:18:44.942Z,5.03
2019-05-21T14:21:10.205Z,5.30
2019-05-21T14:23:35.701Z,5.67
2019-05-21T14:26:01.098Z,6.85
2019-05-21T14:28:27.155Z,4.17
2019-05-21T14:30:52.551Z,4.15
2019-05-21T14:33:18.357Z,4.30
2019-05-21T14:35:44.234Z,5.65
2019-05-21T14:38:16.778Z,5.22
2019-05-21T14:40:42.874Z,6.20
2019-05-21T14:43:07.988Z,6.33
2019-05-21T14:45:34.473Z,4.30
2019-05-21T14:47:59.958Z,4.17
2019-05-21T14:50:25.610Z,5.78
2019-05-21T14:52:52.312Z,3.80
2019-05-21T14:55:17.706Z,4.45
2019-05-21T14:57:44.850Z,4.62
2019-05-21T15:00:37.084Z,6.15
2019-05-21T15:03:02.178Z,4.72
2019-05-21T15:05:27.431Z,6.15
2019-05-21T15:07:54.136Z,19.07
2019-05-21T15:10:19.243Z,4.67
2019-05-21T15:12:44.604Z,4.80
2019-05-21T15:15:09.891Z,6.87
2019-05-21T15:17:35.014Z,5.08
2019-05-21T15:20:02.117Z,4.35
2019-05-21T15:22:27.244Z,4.40
2019-05-21T15:24:52.343Z,3.50
2019-05-21T15:27:17.747Z,5.67
2019-05-21T15:29:43.095Z,5.22
2019-05-21T15:32:08.541Z,3.52
2019-05-21T15:34:33.630Z,4.53
2019-05-21T15:36:58.741Z,4.47
2019-05-21T15:39:24.440Z,4.15
2019-05-21T15:41:49.804Z,10.88
2019-05-21T15:44:15.204Z,3.80
2019-05-21T15:46:49.551Z,4.55
2019-05-21T15:49:08.422Z,4.17
2019-05-21T15:51:33.514Z,4.12
2019-05-21T15:53:58.624Z,6.42
2019-05-21T15:56:23.770Z,5.03
2019-05-21T15:58:49.939Z,10.78
2019-05-21T16:01:16.165Z,4.90
2019-05-21T16:03:41.256Z,4.50
2019-05-21T16:06:09.805Z,6.17
2019-05-21T16:08:35.114Z,4.90
2019-05-21T16:11:00.323Z,5.58
2019-05-21T16:13:25.477Z,9.53
2019-05-21T16:15:51.638Z,8.93
2019-05-21T16:18:17.985Z,8.33
2019-05-21T16:20:43.092Z,7.17
2019-05-21T16:23:08.855Z,13.60
2019-05-21T16:25:33.989Z,8.63
2019-05-21T16:27:59.098Z,9.18
2019-05-21T16:30:24.463Z,15.88
2019-05-21T16:32:49.926Z,6.55
2019-05-21T16:35:15.130Z,9.93
2019-05-21T16:37:40.828Z,4.58
2019-05-21T16:40:06.574Z,3.52
2019-05-21T16:42:31.766Z,5.15
2019-05-21T16:44:56.886Z,4.75
2019-05-21T16:47:22.966Z,6.65
2019-05-21T16:49:48.290Z,5.95
2019-05-21T16:52:13.559Z,3.02
2019-05-21T16:54:40.066Z,3.00
2019-05-21T16:57:05.279Z,4.35
2019-05-21T16:59:31.302Z,3.40
2019-05-21T17:01:57.798Z,4.05
2019-05-21T17:04:22.886Z,7.15
2019-05-21T17:06:48.017Z,7.35
2019-05-21T17:09:13.590Z,5.87
2019-05-21T17:11:38.705Z,3.95
2019-05-21T17:14:04.677Z,5.03
2019-05-21T17:16:31.556Z,4.03
2019-05-21T17:18:56.666Z,3.77
2019-05-21T17:21:21.758Z,4.22
2019-05-21T17:23:46.895Z,3.90
2019-05-21T17:26:11.989Z,5.90
2019-05-21T17:28:37.826Z,4.62
2019-05-21T17:31:03.029Z,3.98
2019-05-21T17:33:29.713Z,4.00
2019-05-21T17:35:54.841Z,3.92
2019-05-21T17:38:24.264Z,4.65
2019-05-21T17:40:47.890Z,6.70
2019-05-21T17:43:13.018Z,4.45
2019-05-21T17:45:40.390Z,6.10
2019-05-21T17:48:05.624Z,4.60
2019-05-21T17:50:32.166Z,4.75
2019-05-21T17:52:57.274Z,4.45
2019-05-21T17:55:22.418Z,4.15
2019-05-21T17:57:47.961Z,4.30
2019-05-21T18:00:16.365Z,4.40
2019-05-21T18:02:41.552Z,4.20
2019-05-21T18:05:08.436Z,6.67
2019-05-21T18:07:35.026Z,4.80
2019-05-21T18:10:00.560Z,5.85
2019-05-21T18:12:32.147Z,4.78
2019-05-21T18:14:54.556Z,5.83
2019-05-21T18:17:20.331Z,4.85
2019-05-21T18:19:46.067Z,4.83
2019-05-21T18:22:13.286Z,5.05
2019-05-21T18:24:39.170Z,5.37
2019-05-21T18:27:04.627Z,7.15
2019-05-21T18:29:30.198Z,7.90
2019-05-21T18:31:55.325Z,6.00
2019-05-21T18:34:21.387Z,6.17
2019-05-21T18:36:46.827Z,7.87
2019-05-21T18:39:11.945Z,5.50
2019-05-21T18:41:37.146Z,6.37
2019-05-21T18:44:02.435Z,6.65
2019-05-21T18:46:27.592Z,6.35
2019-05-21T18:48:52.673Z,6.20
2019-05-21T18:51:17.781Z,6.87
2019-05-21T18:53:42.975Z,6.47
2019-05-21T18:56:08.226Z,7.85
2019-05-21T18:58:33.722Z,9.10
2019-05-21T19:00:58.818Z,10.48
2019-05-21T19:03:25.755Z,10.32
2019-05-21T19:05:50.723Z,8.40
2019-05-21T19:08:16.953Z,7.90
2019-05-21T19:10:42.380Z,8.25
2019-05-21T19:13:07.640Z,9.00
2019-05-21T19:15:32.899Z,9.10
2019-05-21T19:17:58.233Z,11.30
2019-05-21T19:20:23.354Z,10.13
2019-05-21T19:22:49.822Z,10.98
2019-05-21T19:25:15.956Z,12.47
2019-05-21T19:27:41.045Z,14.55
2019-05-21T19:30:07.067Z,13.05
2019-05-21T19:32:32.239Z,16.07
2019-05-21T19:34:57.607Z,14.63
2019-05-21T19:37:22.831Z,13.58
2019-05-21T19:39:47.926Z,13.20
2019-05-21T19:42:13.141Z,11.05
2019-05-21T19:44:38.486Z,10.45
2019-05-21T19:47:03.577Z,9.93
2019-05-21T19:49:28.689Z,9.20
2019-05-21T19:51:54.034Z,8.85
2019-05-21T19:54:19.366Z,8.45
2019-05-21T19:56:44.584Z,9.75
2019-05-21T19:59:10.338Z,13.10
2019-05-21T20:01:35.842Z,8.68
2019-05-21T20:04:01.538Z,10.17
2019-05-21T20:06:27.035Z,7.00
2019-05-21T20:08:52.598Z,6.10
2019-05-21T20:11:18.129Z,6.03
2019-05-21T20:13:43.325Z,4.33
2019-05-21T20:16:10.339Z,4.60
2019-05-21T20:18:35.495Z,4.57
2019-05-21T20:21:01.037Z,3.83
2019-05-21T20:23:26.954Z,3.57
2019-05-21T20:25:56.424Z,6.50
2019-05-21T20:28:20.792Z,5.77
2019-05-21T20:30:46.655Z,8.00
2019-05-21T20:33:11.871Z,5.10
2019-05-21T20:35:38.846Z,9.20
2019-05-21T20:38:04.268Z,5.90
2019-05-21T20:40:30.470Z,7.03
2019-05-21T20:42:55.694Z,9.20
2019-05-21T20:45:21.617Z,4.77
2019-05-21T20:47:47.127Z,5.67
2019-05-21T20:50:13.139Z,3.47
2019-05-21T20:52:39.246Z,4.43
2019-05-21T20:55:05.270Z,6.87
2019-05-21T20:57:30.611Z,4.30
2019-05-21T20:59:56.078Z,6.60
2019-05-21T21:02:21.802Z,6.57
2019-05-21T21:04:47.287Z,6.50
2019-05-21T21:07:13.035Z,6.17
2019-05-21T21:09:38.902Z,5.47
2019-05-21T21:12:06.033Z,6.03
2019-05-21T21:14:31.928Z,9.47
2019-05-21T21:16:59.491Z,7.13
2019-05-21T21:19:24.657Z,5.97
2019-05-21T21:21:50.053Z,7.43
2019-05-21T21:24:15.319Z,7.53
2019-05-21T21:26:40.602Z,7.97
2019-05-21T21:29:06.991Z,7.57
2019-05-21T21:31:32.283Z,8.70
2019-05-21T21:33:57.530Z,7.87
2019-05-21T21:36:23.703Z,8.20
2019-05-21T21:38:49.229Z,11.00
2019-05-21T21:41:16.217Z,12.40
2019-05-21T21:43:41.825Z,9.63
2019-05-21T21:46:07.188Z,11.07
2019-05-21T21:48:32.512Z,15.07
2019-05-21T21:50:58.783Z,15.80
2019-05-21T21:53:24.299Z,21.33
2019-05-21T21:55:49.390Z,23.63
2019-05-21T21:58:15.465Z,25.10
2019-05-21T22:01:24.793Z,23.70
2019-05-21T22:03:50.495Z,27.07
2019-05-21T22:06:18.111Z,28.03
2019-05-21T22:08:43.488Z,27.27
2019-05-21T22:11:08.832Z,28.63
2019-05-21T22:13:34.293Z,27.37
2019-05-21T22:16:00.165Z,30.47
2019-05-21T22:18:26.136Z,27.23
2019-05-21T22:20:51.548Z,26.50
2019-05-21T22:23:16.766Z,31.37
2019-05-21T22:25:43.023Z,29.43
2019-05-21T22:28:08.154Z,30.40
2019-05-21T22:30:33.815Z,26.20
2019-05-21T22:32:58.975Z,27.13
2019-05-21T22:35:24.250Z,32.33
2019-05-21T22:37:49.994Z,28.77
2019-05-21T22:40:16.094Z,31.70
2019-05-21T22:42:41.242Z,32.33
2019-05-21T22:45:09.124Z,34.00
2019-05-21T22:47:35.011Z,37.73
2019-05-21T22:50:00.421Z,42.40
2019-05-21T22:52:25.506Z,32.87
2019-05-21T22:54:50.630Z,35.00
2019-05-21T22:57:15.735Z,32.20
2019-05-21T22:59:40.966Z,39.70
2019-05-21T23:02:08.993Z,37.97
2019-05-21T23:04:34.193Z,33.90
2019-05-21T23:07:02.386Z,40.13
2019-05-21T23:09:27.717Z,40.03
2019-05-21T23:11:53.091Z,37.27
2019-05-21T23:14:18.196Z,39.30
2019-05-21T23:16:44.066Z,39.03
2019-05-21T23:19:11.710Z,43.30
2019-05-21T23:21:41.414Z,40.23
2019-05-21T23:24:13.222Z,39.43
2019-05-21T23:26:38.326Z,40.00
2019-05-21T23:29:04.429Z,47.13
2019-05-21T23:31:31.243Z,40.43
2019-05-21T23:33:57.807Z,44.33
2019-05-21T23:36:24.072Z,49.50
2019-05-21T23:38:50.632Z,51.53
2019-05-21T23:41:16.238Z,51.13
2019-05-21T23:43:41.418Z,52.73
2019-05-21T23:46:07.530Z,54.17
2019-05-21T23:48:32.838Z,55.33
2019-05-21T23:50:58.296Z,60.20
2019-05-21T23:53:23.407Z,57.37
2019-05-21T23:55:48.537Z,59.73
2019-05-21T23:58:14.263Z,57.03
